Time;durP1;ratioP1;P1;durP2;ratioP2;P2;SDS_P1;SDS_P2;PMS_P1;PMS_P2;Temp;Humidity;BMP_temperature;BMP_pressure;BME280_temperature;BME280_humidity;BME280_pressure;Samples;Min_cycle;Max_cycle;Signal;HPM_P1;HPM_P2
2023/06/26 00:00:41;;;;;;;10.47;8.10;;;21.20;99.90;;;;;;5060093;28;20028;-64
2023/06/26 00:03:07;;;;;;;11.07;8.40;;;21.20;99.90;;;;;;5063817;28;20029;-64
2023/06/26 00:05:32;;;;;;;11.60;8.57;;;21.30;99.90;;;;;;5060494;28;20032;-65
2023/06/26 00:08:00;;;;;;;9.90;8.13;;;21.50;99.90;;;;;;5055874;28;20107;-65
2023/06/26 00:10:27;;;;;;;11.52;7.57;;;21.40;99.90;;;;;;5052615;28;20047;-65
2023/06/26 00:12:53;;;;;;;13.35;8.88;;;21.30;99.90;;;;;;5059534;28;20123;-64
2023/06/26 00:15:19;;;;;;;10.10;7.80;;;21.20;99.90;;;;;;5059914;28;20072;-64
2023/06/26 00:17:45;;;;;;;10.68;8.38;;;21.20;99.90;;;;;;5061301;28;20060;-64
2023/06/26 00:20:11;;;;;;;10.48;8.57;;;21.10;99.90;;;;;;5057028;28;20033;-66
2023/06/26 00:22:40;;;;;;;10.50;8.32;;;21.00;99.90;;;;;;5059352;28;20025;-65
2023/06/26 00:25:06;;;;;;;11.20;6.80;;;21.00;99.90;;;;;;5057334;28;20055;-65
2023/06/26 00:27:32;;;;;;;9.82;7.93;;;20.90;99.90;;;;;;5061324;28;20033;-65
2023/06/26 00:29:57;;;;;;;11.30;8.17;;;20.70;99.90;;;;;;5041876;28;20408;-65
2023/06/26 00:32:23;;;;;;;11.03;8.37;;;20.90;99.90;;;;;;5056118;28;20309;-65
2023/06/26 00:34:49;;;;;;;15.07;8.20;;;20.80;99.90;;;;;;5065436;28;20029;-63
2023/06/26 00:37:14;;;;;;;11.60;8.13;;;20.80;99.90;;;;;;5059967;28;20040;-63
2023/06/26 00:39:40;;;;;;;12.17;8.23;;;20.80;99.90;;;;;;5057164;28;20013;-64
2023/06/26 00:42:06;;;;;;;12.65;8.07;;;20.70;99.90;;;;;;5057815;28;20032;-64
2023/06/26 00:44:32;;;;;;;14.40;8.48;;;20.80;99.90;;;;;;5060881;28;20097;-65
2023/06/26 00:46:57;;;;;;;15.50;7.90;;;20.80;99.90;;;;;;5058163;28;20036;-65
2023/06/26 00:49:24;;;;;;;14.77;8.80;;;20.60;99.90;;;;;;5056263;28;20210;-63
2023/06/26 00:51:50;;;;;;;9.50;7.80;;;20.60;99.90;;;;;;5053856;28;20552;-65
2023/06/26 00:54:19;;;;;;;10.13;8.20;;;20.50;99.90;;;;;;5062551;28;20195;-64
2023/06/26 00:56:47;;;;;;;10.35;8.23;;;20.50;99.90;;;;;;5046682;28;20349;-65
2023/06/26 00:59:13;;;;;;;10.55;8.30;;;20.50;99.90;;;;;;5060273;28;20033;-65
2023/06/26 01:01:38;;;;;;;10.75;8.20;;;20.50;99.90;;;;;;5059899;28;20241;-65
2023/06/26 01:04:05;;;;;;;13.57;7.50;;;20.40;99.90;;;;;;5056178;28;20068;-65
2023/06/26 01:06:35;;;;;;;10.13;7.97;;;20.30;99.90;;;;;;5043914;28;20028;-65
2023/06/26 01:09:01;;;;;;;47.83;9.43;;;20.60;99.90;;;;;;5060853;28;20039;-65
2023/06/26 01:11:27;;;;;;;8.63;7.22;;;20.40;99.90;;;;;;5062968;28;20467;-64
2023/06/26 01:13:55;;;;;;;12.90;8.40;;;20.50;99.90;;;;;;5064945;28;20068;-65
2023/06/26 01:16:23;;;;;;;10.35;7.47;;;20.40;99.90;;;;;;5056332;28;20025;-65
2023/06/26 01:18:49;;;;;;;10.25;8.13;;;20.50;99.90;;;;;;5059807;28;20445;-65
2023/06/26 01:21:15;;;;;;;10.13;8.00;;;20.70;99.90;;;;;;5056551;28;20082;-65
2023/06/26 01:24:10;;;;;;;14.68;7.82;;;20.50;99.90;;;;;;5057491;28;20040;-65
2023/06/26 01:26:36;;;;;;;14.95;8.23;;;20.50;99.90;;;;;;5060480;28;20113;-64
2023/06/26 01:29:07;;;;;;;13.73;8.75;;;20.50;99.90;;;;;;5059804;28;20499;-65
2023/06/26 01:31:34;;;;;;;10.98;8.48;;;20.50;99.90;;;;;;5059471;28;20377;-65
2023/06/26 01:34:01;;;;;;;14.23;8.70;;;20.40;99.90;;;;;;5053681;28;20036;-64
2023/06/26 01:36:27;;;;;;;10.23;8.48;;;20.20;99.90;;;;;;5057119;28;20035;-62
2023/06/26 01:38:52;;;;;;;10.00;8.35;;;20.20;99.90;;;;;;5057916;28;20020;-64
2023/06/26 01:41:19;;;;;;;9.93;8.90;;;20.10;99.90;;;;;;5062708;28;20842;-65
2023/06/26 01:44:02;;;;;;;11.55;9.32;;;20.10;99.90;;;;;;5062974;28;20076;-63
2023/06/26 01:47:02;;;;;;;10.02;7.93;;;19.90;99.90;;;;;;5059569;28;20024;-64
2023/06/26 01:50:05;;;;;;;8.80;7.80;;;19.90;99.90;;;;;;5061277;28;20031;-63
2023/06/26 01:52:56;;;;;;;19.48;9.10;;;20.10;99.90;;;;;;5057549;28;20062;-64
2023/06/26 01:55:35;;;;;;;14.38;9.68;;;20.20;99.90;;;;;;5060814;28;20017;-63
2023/06/26 01:58:01;;;;;;;10.43;8.77;;;19.90;99.90;;;;;;5067686;28;20051;-63
2023/06/26 02:00:28;;;;;;;11.75;9.43;;;20.10;99.90;;;;;;5065270;28;20078;-65
2023/06/26 02:02:54;;;;;;;;;;;19.90;99.90;;;;;;5063340;28;20036;-65
2023/06/26 02:05:19;;;;;;;11.93;9.57;;;20.00;99.90;;;;;;5056554;28;20349;-65
2023/06/26 02:07:45;;;;;;;13.30;8.95;;;19.90;99.90;;;;;;5058132;28;20029;-64
2023/06/26 02:10:11;;;;;;;11.47;8.67;;;20.20;99.90;;;;;;5062189;28;20037;-65
2023/06/26 02:12:37;;;;;;;13.03;8.87;;;20.30;99.90;;;;;;5063625;28;20155;-65
2023/06/26 02:15:04;;;;;;;17.10;9.48;;;20.10;99.90;;;;;;5041043;28;20039;-63
2023/06/26 02:17:29;;;;;;;;;;;19.80;99.90;;;;;;5059246;28;20036;-63
2023/06/26 02:19:55;;;;;;;12.80;8.02;;;19.70;99.90;;;;;;5064425;28;19913;-65
2023/06/26 02:22:20;;;;;;;15.20;9.37;;;19.60;99.90;;;;;;5059507;28;20041;-65
2023/06/26 02:24:46;;;;;;;10.63;8.30;;;19.90;99.90;;;;;;5060437;28;20031;-64
2023/06/26 02:27:12;;;;;;;19.33;9.73;;;19.90;99.90;;;;;;5066563;28;20060;-65
2023/06/26 02:29:38;;;;;;;13.63;9.37;;;19.70;99.90;;;;;;5065681;28;20055;-65
2023/06/26 02:32:04;;;;;;;12.25;10.05;;;19.60;99.90;;;;;;5054868;28;20033;-65
2023/06/26 02:34:30;;;;;;;10.23;8.23;;;19.60;99.90;;;;;;5048662;28;20031;-63
2023/06/26 02:36:56;;;;;;;15.77;8.97;;;19.60;99.90;;;;;;5042149;28;20514;-65
2023/06/26 02:39:22;;;;;;;13.75;9.13;;;19.70;99.90;;;;;;5063930;28;20032;-65
2023/06/26 02:41:47;;;;;;;14.55;9.52;;;19.60;99.90;;;;;;5059352;28;20049;-65
2023/06/26 02:44:14;;;;;;;12.03;8.93;;;19.60;99.90;;;;;;5058059;28;20041;-65
2023/06/26 02:46:40;;;;;;;10.63;8.70;;;19.50;99.90;;;;;;5045607;28;20112;-66
2023/06/26 02:49:06;;;;;;;17.42;10.07;;;19.60;99.90;;;;;;5062687;28;20039;-64
2023/06/26 02:51:33;;;;;;;11.27;8.88;;;19.50;99.90;;;;;;5056487;28;20412;-65
2023/06/26 02:53:58;;;;;;;13.55;8.73;;;19.50;99.90;;;;;;5058875;28;20033;-64
2023/06/26 02:56:24;;;;;;;11.70;8.97;;;19.60;99.90;;;;;;5060714;28;20044;-65
2023/06/26 02:58:49;;;;;;;13.77;8.83;;;19.60;99.90;;;;;;5059976;28;20389;-65
2023/06/26 03:01:15;;;;;;;12.63;9.37;;;19.70;99.90;;;;;;5058501;28;20121;-65
2023/06/26 03:03:41;;;;;;;11.43;8.97;;;19.70;99.90;;;;;;5043011;28;20412;-65
2023/06/26 03:06:07;;;;;;;13.25;9.55;;;19.60;99.90;;;;;;5057691;28;20033;-65
2023/06/26 03:08:36;;;;;;;13.00;9.10;;;19.50;99.90;;;;;;5056792;28;20450;-65
2023/06/26 03:11:01;;;;;;;11.40;8.48;;;19.50;99.90;;;;;;5063151;28;20607;-65
2023/06/26 03:13:27;;;;;;;11.43;9.20;;;19.50;99.90;;;;;;5060247;28;20124;-63
2023/06/26 03:15:53;;;;;;;12.97;9.13;;;19.50;99.90;;;;;;5053726;28;20024;-64
2023/06/26 03:18:19;;;;;;;12.95;9.23;;;19.50;99.90;;;;;;5064009;28;20107;-65
2023/06/26 03:20:45;;;;;;;11.60;9.75;;;19.30;99.90;;;;;;5062854;28;20079;-65
2023/06/26 03:23:11;;;;;;;14.20;9.07;;;19.40;99.90;;;;;;5061898;28;20039;-65
2023/06/26 03:25:37;;;;;;;13.15;9.52;;;19.50;99.90;;;;;;5057289;28;20040;-63
2023/06/26 03:28:03;;;;;;;12.23;8.60;;;19.40;99.90;;;;;;5056967;28;20020;-62
2023/06/26 03:30:28;;;;;;;13.48;9.00;;;19.20;99.90;;;;;;5059118;28;20064;-62
2023/06/26 03:32:54;;;;;;;13.47;8.80;;;19.20;99.90;;;;;;5049089;28;20036;-63
2023/06/26 03:35:20;;;;;;;15.67;9.43;;;19.20;99.90;;;;;;5058178;28;20029;-64
2023/06/26 03:37:45;;;;;;;14.68;9.48;;;19.40;99.90;;;;;;5065965;28;20029;-64
2023/06/26 03:40:11;;;;;;;10.77;8.63;;;19.40;99.90;;;;;;5066228;28;20032;-64
2023/06/26 03:42:37;;;;;;;12.73;9.33;;;19.30;99.90;;;;;;5058073;28;20029;-64
2023/06/26 03:45:03;;;;;;;14.40;9.70;;;19.30;99.90;;;;;;5063475;28;20031;-65
2023/06/26 03:47:28;;;;;;;20.52;11.27;;;19.20;99.90;;;;;;5063479;28;20500;-65
2023/06/26 03:49:54;;;;;;;13.33;10.20;;;19.00;99.90;;;;;;5059072;28;20032;-65
2023/06/26 03:52:19;;;;;;;14.53;10.17;;;19.00;99.90;;;;;;5047276;28;20412;-65
2023/06/26 03:54:45;;;;;;;13.07;9.17;;;19.10;99.90;;;;;;5055329;28;20017;-65
2023/06/26 03:57:11;;;;;;;14.40;9.43;;;19.10;99.90;;;;;;5040524;28;20032;-65
2023/06/26 03:59:37;;;;;;;11.57;9.27;;;19.10;99.90;;;;;;5057781;28;20129;-63
2023/06/26 04:02:03;;;;;;;14.90;9.63;;;19.00;99.90;;;;;;5059500;28;20022;-64
2023/06/26 04:04:29;;;;;;;15.20;9.68;;;19.00;99.90;;;;;;5057104;28;20040;-65
2023/06/26 04:06:55;;;;;;;13.43;9.55;;;19.00;99.90;;;;;;5056090;28;20036;-65
2023/06/26 04:09:21;;;;;;;14.45;10.23;;;19.00;99.90;;;;;;5062186;28;20047;-65
2023/06/26 04:11:46;;;;;;;14.10;8.80;;;19.00;99.90;;;;;;5059379;28;20047;-65
2023/06/26 04:14:12;;;;;;;14.07;9.97;;;19.00;99.90;;;;;;5055079;28;20614;-66
2023/06/26 04:16:38;;;;;;;16.33;9.77;;;19.00;99.90;;;;;;5059759;28;20381;-65
2023/06/26 04:19:04;;;;;;;12.00;9.32;;;19.00;99.90;;;;;;5057110;28;20039;-63
2023/06/26 04:21:30;;;;;;;12.30;9.20;;;19.00;99.90;;;;;;5060391;28;20089;-63
2023/06/26 04:23:56;;;;;;;17.13;10.57;;;19.10;99.90;;;;;;5058493;28;20865;-63
2023/06/26 04:26:22;;;;;;;10.70;9.50;;;19.10;99.90;;;;;;5055960;28;20039;-64
2023/06/26 04:28:48;;;;;;;18.90;9.37;;;19.10;99.90;;;;;;5058981;28;20362;-64
2023/06/26 04:31:13;;;;;;;11.60;8.85;;;19.00;99.90;;;;;;5058375;28;20032;-65
2023/06/26 04:33:39;;;;;;;12.37;9.47;;;18.90;99.90;;;;;;5056389;28;20064;-65
2023/06/26 04:36:05;;;;;;;12.43;9.48;;;19.10;99.90;;;;;;5059130;28;20024;-62
2023/06/26 04:38:33;;;;;;;13.07;10.57;;;19.00;99.90;;;;;;5056027;28;20445;-64
2023/06/26 04:40:58;;;;;;;16.65;9.68;;;19.00;99.90;;;;;;5055932;28;20033;-65
2023/06/26 04:43:24;;;;;;;15.07;9.43;;;19.00;99.90;;;;;;5057973;28;20074;-64
2023/06/26 04:45:50;;;;;;;13.80;9.93;;;19.00;99.90;;;;;;5062470;28;20039;-63
2023/06/26 04:48:15;;;;;;;19.30;9.87;;;19.10;99.90;;;;;;5063670;28;20024;-64
2023/06/26 04:50:41;;;;;;;13.63;9.73;;;19.10;99.90;;;;;;5054637;28;20028;-64
2023/06/26 04:53:07;;;;;;;14.63;9.57;;;19.20;99.90;;;;;;5056679;28;20052;-64
2023/06/26 04:55:32;;;;;;;13.03;8.97;;;19.40;99.90;;;;;;5058408;28;20301;-63
2023/06/26 04:57:58;;;;;;;11.77;8.90;;;19.40;99.90;;;;;;5056802;28;20480;-63
2023/06/26 05:00:24;;;;;;;14.70;9.70;;;19.50;99.90;;;;;;5054775;28;20028;-63
2023/06/26 05:02:58;;;;;;;;;;;19.40;99.90;;;;;;5059516;28;20492;-63
2023/06/26 05:05:24;;;;;;;14.50;9.20;;;19.40;99.90;;;;;;5057103;28;19964;-63
2023/06/26 05:07:52;;;;;;;19.75;10.13;;;19.50;99.90;;;;;;5058230;28;20102;-64
2023/06/26 05:10:17;;;;;;;13.82;10.10;;;19.60;99.90;;;;;;5054331;28;20021;-63
2023/06/26 05:12:43;;;;;;;18.17;9.80;;;19.70;99.90;;;;;;5059787;28;20043;-64
2023/06/26 05:15:09;;;;;;;13.33;8.97;;;19.60;99.90;;;;;;5060984;28;20031;-63
2023/06/26 05:17:34;;;;;;;18.00;9.32;;;19.80;99.90;;;;;;5060821;28;20107;-64
2023/06/26 05:20:00;;;;;;;14.03;9.83;;;20.00;99.90;;;;;;5057619;28;20412;-65
2023/06/26 05:22:26;;;;;;;22.97;10.37;;;20.00;99.90;;;;;;5058353;28;20017;-65
2023/06/26 05:24:54;;;;;;;14.25;9.55;;;20.40;99.90;;;;;;5061056;28;20067;-65
2023/06/26 05:27:21;;;;;;;12.85;9.75;;;20.40;99.90;;;;;;5060902;28;20036;-64
2023/06/26 05:29:48;;;;;;;15.80;9.55;;;20.60;99.90;;;;;;5057736;28;20036;-66
2023/06/26 05:32:19;;;;;;;11.38;8.88;;;20.90;99.90;;;;;;5065888;28;20040;-63
2023/06/26 05:34:51;;;;;;;15.00;9.23;;;21.80;99.90;;;;;;5059605;28;20060;-63
2023/06/26 05:37:28;;;;;;;19.55;8.88;;;22.20;99.90;;;;;;5064355;28;20052;-64
2023/06/26 05:39:53;;;;;;;10.88;8.63;;;22.30;99.90;;;;;;5062045;28;20092;-63
2023/06/26 05:42:19;;;;;;;12.00;8.77;;;22.00;99.90;;;;;;5064118;28;20823;-63
2023/06/26 05:44:45;;;;;;;14.00;9.00;;;22.00;99.90;;;;;;5064512;28;20041;-63
2023/06/26 05:47:11;;;;;;;16.30;8.43;;;22.30;99.90;;;;;;5067490;28;20112;-64
2023/06/26 05:49:36;;;;;;;14.95;9.32;;;22.80;99.90;;;;;;5065452;28;20155;-64
2023/06/26 05:52:02;;;;;;;10.43;8.23;;;23.50;99.70;;;;;;5066118;28;20029;-64
2023/06/26 05:54:28;;;;;;;10.55;7.97;;;23.80;97.80;;;;;;5041529;28;20287;-64
2023/06/26 05:56:59;;;;;;;14.65;7.85;;;24.80;96.00;;;;;;5062223;28;20029;-63
2023/06/26 05:59:26;;;;;;;9.38;7.43;;;25.50;94.70;;;;;;5062041;28;20028;-65
2023/06/26 06:01:52;;;;;;;11.60;7.93;;;26.70;91.70;;;;;;5057696;28;20032;-63
2023/06/26 06:04:18;;;;;;;9.50;7.75;;;27.50;90.50;;;;;;5061894;28;20481;-64
2023/06/26 06:06:43;;;;;;;11.48;8.00;;;28.20;87.40;;;;;;5062500;28;20040;-64
2023/06/26 06:09:09;;;;;;;13.20;7.90;;;28.70;84.00;;;;;;5062682;28;20017;-64
2023/06/26 06:11:34;;;;;;;14.48;7.40;;;29.30;83.20;;;;;;5059726;28;20117;-64
2023/06/26 06:14:00;;;;;;;14.10;7.85;;;30.00;78.20;;;;;;5058197;28;20029;-64
2023/06/26 06:16:28;;;;;;;8.77;7.10;;;30.30;78.30;;;;;;5058980;28;20063;-65
2023/06/26 06:18:54;;;;;;;18.08;7.00;;;30.80;75.80;;;;;;5058416;28;20033;-65
2023/06/26 06:21:20;;;;;;;12.63;6.90;;;31.30;73.50;;;;;;5064119;28;20443;-66
2023/06/26 06:23:45;;;;;;;10.10;7.50;;;31.30;71.00;;;;;;5058133;28;20303;-65
2023/06/26 06:26:11;;;;;;;14.65;6.80;;;32.00;70.70;;;;;;5064515;28;20511;-66
2023/06/26 06:28:38;;;;;;;;;;;32.20;70.00;;;;;;5064084;28;20510;-65
2023/06/26 06:31:03;;;;;;;16.60;7.37;;;32.80;68.80;;;;;;5062272;28;19913;-65
2023/06/26 06:33:29;;;;;;;;;;;32.80;67.80;;;;;;5061107;28;20035;-65
2023/06/26 06:35:54;;;;;;;14.30;6.70;;;32.60;66.80;;;;;;5063961;28;20332;-65
2023/06/26 06:38:20;;;;;;;;;;;33.00;68.10;;;;;;5060542;28;20064;-65
2023/06/26 06:40:45;;;;;;;180.98;41.97;;;32.90;66.00;;;;;;5059697;28;19913;-65
2023/06/26 06:43:11;;;;;;;;;;;32.80;66.90;;;;;;5057301;28;20037;-65
2023/06/26 06:45:37;;;;;;;170.40;39.80;;;32.50;67.10;;;;;;5063325;28;20816;-66
2023/06/26 06:48:04;;;;;;;160.98;38.28;;;30.90;68.50;;;;;;5060372;28;20094;-65
2023/06/26 06:50:29;;;;;;;109.60;31.50;;;29.60;72.10;;;;;;5058045;28;20098;-65
2023/06/26 06:52:55;;;;;;;;;;;30.60;71.30;;;;;;5063386;28;20488;-65
2023/06/26 06:55:20;;;;;;;86.05;24.40;;;31.90;69.30;;;;;;5060180;28;19963;-65
2023/06/26 06:57:46;;;;;;;;;;;33.20;66.30;;;;;;5057508;28;20064;-65
2023/06/26 07:00:14;;;;;;;42.67;14.00;;;33.40;64.40;;;;;;5056087;28;19912;-65
2023/06/26 07:02:42;;;;;;;49.00;14.88;;;34.60;62.60;;;;;;5059642;28;20037;-65
2023/06/26 07:05:09;;;;;;;35.92;14.48;;;33.90;63.70;;;;;;5059974;28;20043;-65
2023/06/26 07:07:35;;;;;;;28.50;13.38;;;33.00;64.50;;;;;;5061398;28;20028;-66
2023/06/26 07:10:04;;;;;;;23.77;10.27;;;32.20;66.90;;;;;;5062225;28;20020;-65
2023/06/26 07:12:29;;;;;;;14.25;9.02;;;32.00;67.70;;;;;;5055932;28;20557;-65
2023/06/26 07:14:56;;;;;;;;;;;31.00;68.60;;;;;;5060690;28;20095;-65
2023/06/26 07:17:21;;;;;;;12.98;8.05;;;30.40;70.40;;;;;;5063424;28;19973;-65
2023/06/26 07:19:47;;;;;;;;;;;29.00;74.50;;;;;;5056848;28;20029;-66
2023/06/26 07:22:13;;;;;;;13.23;7.97;;;29.20;75.00;;;;;;5064718;28;20429;-64
2023/06/26 07:24:38;;;;;;;;;;;28.80;75.10;;;;;;5065800;28;20037;-64
2023/06/26 07:27:04;;;;;;;11.35;6.95;;;28.90;75.80;;;;;;5062834;28;20033;-65
2023/06/26 07:29:29;;;;;;;12.32;7.13;;;28.40;75.40;;;;;;5060092;28;20033;-65
2023/06/26 07:31:55;;;;;;;13.65;7.60;;;27.80;78.40;;;;;;5065001;28;20064;-64
2023/06/26 07:34:21;;;;;;;10.13;7.22;;;28.10;77.40;;;;;;5063868;28;20032;-65
2023/06/26 07:36:46;;;;;;;16.88;7.32;;;28.30;77.00;;;;;;5059685;28;20500;-65
2023/06/26 07:39:12;;;;;;;15.18;7.40;;;27.90;76.90;;;;;;5046927;28;20036;-65
2023/06/26 07:41:37;;;;;;;15.98;6.50;;;27.40;78.10;;;;;;5060286;28;20029;-65
2023/06/26 07:44:03;;;;;;;12.35;7.35;;;27.40;79.90;;;;;;5060293;28;20075;-65
2023/06/26 07:46:29;;;;;;;12.93;7.50;;;27.20;80.90;;;;;;5056767;28;20060;-65
2023/06/26 07:48:54;;;;;;;14.73;7.72;;;27.60;79.40;;;;;;5062048;28;20545;-66
2023/06/26 07:51:20;;;;;;;15.48;6.63;;;27.50;80.00;;;;;;5041409;28;20043;-65
2023/06/26 07:53:46;;;;;;;9.70;6.15;;;27.60;80.40;;;;;;5058295;28;20102;-66
2023/06/26 07:56:11;;;;;;;14.55;7.18;;;27.30;80.50;;;;;;5058374;28;20036;-65
2023/06/26 07:58:37;;;;;;;13.05;7.20;;;27.40;80.70;;;;;;5056224;28;20058;-65
2023/06/26 08:01:02;;;;;;;10.20;7.05;;;27.70;79.80;;;;;;5062299;28;20550;-65
2023/06/26 08:03:28;;;;;;;13.77;6.97;;;27.60;80.30;;;;;;5061342;28;20078;-65
2023/06/26 08:05:54;;;;;;;11.23;7.20;;;27.60;80.70;;;;;;5055582;28;20475;-66
2023/06/26 08:08:19;;;;;;;10.88;6.57;;;27.70;81.00;;;;;;5060673;28;20042;-65
2023/06/26 08:10:45;;;;;;;8.30;6.57;;;27.80;79.70;;;;;;5061971;28;20366;-65
2023/06/26 08:13:10;;;;;;;8.43;7.07;;;27.60;79.80;;;;;;5063327;28;20127;-65
2023/06/26 08:15:36;;;;;;;13.02;7.30;;;27.60;79.70;;;;;;5056242;28;20029;-65
2023/06/26 08:18:01;;;;;;;12.23;7.45;;;27.70;78.90;;;;;;5060003;28;20389;-64
2023/06/26 08:20:28;;;;;;;11.77;7.40;;;29.00;77.20;;;;;;5060057;28;20033;-65
2023/06/26 08:22:54;;;;;;;;;;;32.00;69.50;;;;;;5063565;28;20033;-65
2023/06/26 08:25:20;;;;;;;14.68;6.70;;;34.20;62.70;;;;;;5062078;28;20336;-65
2023/06/26 08:27:46;;;;;;;12.98;8.35;;;34.60;61.80;;;;;;5042440;28;20409;-66
2023/06/26 08:30:13;;;;;;;9.82;7.32;;;35.50;59.70;;;;;;5061122;28;20534;-65
2023/06/26 08:32:39;;;;;;;15.80;7.28;;;35.80;57.70;;;;;;5063337;28;20128;-64
2023/06/26 08:35:05;;;;;;;;;;;35.40;58.70;;;;;;5062620;28;20067;-65
2023/06/26 08:37:32;;;;;;;11.43;6.63;;;34.40;60.60;;;;;;5060305;28;19909;-66
2023/06/26 08:40:01;;;;;;;10.38;6.88;;;33.40;62.60;;;;;;5061188;28;20028;-67
2023/06/26 08:42:26;;;;;;;9.40;6.05;;;31.90;65.30;;;;;;5060973;28;20087;-65
2023/06/26 08:44:52;;;;;;;;;;;31.80;66.00;;;;;;5057841;28;20029;-66
2023/06/26 08:47:19;;;;;;;10.32;6.68;;;32.00;65.40;;;;;;5056854;28;20359;-66
2023/06/26 08:50:10;;;;;;;11.68;6.30;;;31.80;65.60;;;;;;5059439;28;20032;-65
2023/06/26 08:53:04;;;;;;;12.05;6.47;;;30.70;68.20;;;;;;5057985;28;20033;-65
2023/06/26 08:55:33;;;;;;;10.27;6.50;;;30.50;69.70;;;;;;5056102;28;20025;-65
2023/06/26 08:57:59;;;;;;;10.13;7.20;;;30.30;70.90;;;;;;5057923;28;20127;-64
2023/06/26 09:00:25;;;;;;;15.25;6.78;;;32.70;67.30;;;;;;5059415;28;20564;-66
2023/06/26 09:02:51;;;;;;;10.25;6.60;;;36.40;59.30;;;;;;5055634;28;20039;-65
2023/06/26 09:05:16;;;;;;;;;;;37.40;55.90;;;;;;5060545;28;20025;-65
2023/06/26 09:07:42;;;;;;;9.90;6.45;;;39.00;53.80;;;;;;5061680;28;20450;-66
2023/06/26 09:10:08;;;;;;;9.38;6.40;;;38.90;53.90;;;;;;5054832;28;20029;-65
2023/06/26 09:12:35;;;;;;;8.18;6.28;;;39.00;53.70;;;;;;5057379;28;20036;-65
2023/06/26 09:15:02;;;;;;;11.90;6.32;;;39.60;52.30;;;;;;5055004;28;20487;-65
2023/06/26 09:17:37;;;;;;;6.85;6.05;;;39.80;51.50;;;;;;5060871;28;20020;-66
2023/06/26 09:20:04;;;;;;;9.43;6.97;;;40.20;50.70;;;;;;5059571;28;20040;-65
2023/06/26 09:22:33;;;;;;;14.10;6.60;;;40.70;50.50;;;;;;5060105;28;20064;-66
2023/06/26 09:24:59;;;;;;;10.70;5.80;;;40.50;50.30;;;;;;5059176;28;20036;-64
2023/06/26 09:27:25;;;;;;;9.90;5.97;;;42.50;49.40;;;;;;5060133;28;20032;-64
2023/06/26 09:29:51;;;;;;;9.95;5.70;;;39.80;49.30;;;;;;5060960;28;20036;-63
2023/06/26 09:32:17;;;;;;;8.02;5.80;;;41.40;49.60;;;;;;5060880;28;20032;-65
2023/06/26 09:34:44;;;;;;;8.88;5.93;;;42.20;48.70;;;;;;5057491;28;20064;-63
2023/06/26 09:37:13;;;;;;;12.55;5.88;;;42.50;46.90;;;;;;5059396;28;20121;-64
2023/06/26 09:39:38;;;;;;;8.95;6.50;;;41.50;48.50;;;;;;5053759;28;20404;-65
2023/06/26 09:42:05;;;;;;;8.32;6.07;;;41.80;48.30;;;;;;5058369;28;20043;-65
2023/06/26 09:44:31;;;;;;;11.40;6.22;;;42.50;47.00;;;;;;5053921;28;20038;-64
2023/06/26 09:46:57;;;;;;;7.22;6.20;;;42.00;48.40;;;;;;5061887;28;20436;-65
2023/06/26 09:49:23;;;;;;;6.43;5.82;;;41.50;48.60;;;;;;5062940;28;20024;-65
2023/06/26 09:51:50;;;;;;;6.75;5.15;;;41.50;48.20;;;;;;5056363;28;20033;-65
2023/06/26 09:54:17;;;;;;;10.38;7.07;;;41.80;47.00;;;;;;5060418;28;20189;-64
2023/06/26 09:56:43;;;;;;;9.45;5.97;;;42.70;47.40;;;;;;5058812;28;20029;-64
2023/06/26 09:59:09;;;;;;;14.13;5.95;;;42.40;46.20;;;;;;5061515;28;20039;-65
2023/06/26 10:01:41;;;;;;;9.20;5.72;;;41.30;47.30;;;;;;5061188;28;20028;-64
2023/06/26 10:04:07;;;;;;;11.73;5.97;;;42.10;48.40;;;;;;5061215;28;20078;-64
2023/06/26 10:06:35;;;;;;;6.85;5.85;;;41.40;47.80;;;;;;5059903;28;20446;-64
2023/06/26 10:09:03;;;;;;;7.82;5.70;;;42.40;47.80;;;;;;5055801;28;20060;-65
2023/06/26 10:11:41;;;;;;;8.70;5.50;;;42.00;48.40;;;;;;5058490;28;20028;-65
2023/06/26 10:14:08;;;;;;;10.00;5.57;;;43.20;47.50;;;;;;5062043;28;20507;-65
2023/06/26 10:16:36;;;;;;;12.13;6.18;;;42.90;46.00;;;;;;5058383;28;20045;-65
2023/06/26 10:19:06;;;;;;;11.55;6.10;;;42.40;47.20;;;;;;5061728;28;20029;-68
2023/06/26 10:21:34;;;;;;;7.05;5.93;;;41.50;46.40;;;;;;5058613;28;20032;-66
2023/06/26 10:24:02;;;;;;;9.98;5.80;;;38.70;49.60;;;;;;5056880;28;20029;-64
2023/06/26 10:26:29;;;;;;;6.50;5.00;;;36.80;52.70;;;;;;5061280;28;20032;-65
2023/06/26 10:28:56;;;;;;;11.50;6.03;;;34.40;58.10;;;;;;5063888;28;20060;-65
2023/06/26 10:31:26;;;;;;;12.82;6.57;;;34.00;60.30;;;;;;5065138;28;20074;-65
2023/06/26 10:33:52;;;;;;;10.13;5.80;;;33.80;59.80;;;;;;5063132;28;20059;-65
2023/06/26 10:36:21;;;;;;;7.93;5.32;;;33.00;60.30;;;;;;5063688;28;20031;-65
2023/06/26 10:38:56;;;;;;;8.75;6.00;;;32.60;61.00;;;;;;5058519;28;20029;-65
2023/06/26 10:41:25;;;;;;;7.65;5.88;;;33.00;62.70;;;;;;5045095;28;20801;-65
2023/06/26 10:44:01;;;;;;;7.63;5.97;;;32.60;60.40;;;;;;5060625;28;20714;-65
2023/06/26 10:46:26;;;;;;;9.50;6.78;;;32.60;62.30;;;;;;5059939;28;20029;-65
2023/06/26 10:48:59;;;;;;;;;;;32.20;62.20;;;;;;5062628;28;20029;-66
2023/06/26 10:51:26;;;;;;;11.80;6.90;;;31.90;61.90;;;;;;5064091;28;19912;-65
2023/06/26 10:53:56;;;;;;;10.10;6.50;;;32.20;62.80;;;;;;5063751;28;20105;-65
2023/06/26 10:56:40;;;;;;;12.43;5.93;;;31.90;64.10;;;;;;5061162;28;20020;-69
2023/06/26 10:59:17;;;;;;;13.68;8.20;;;32.00;64.20;;;;;;5046113;28;20457;-68
2023/06/26 11:01:45;;;;;;;49.05;14.55;;;31.70;64.50;;;;;;5060194;28;20025;-65
2023/06/26 11:04:11;;;;;;;36.67;10.90;;;32.00;65.00;;;;;;5059905;28;20454;-65
2023/06/26 11:06:38;;;;;;;26.75;8.48;;;31.80;65.10;;;;;;5061457;28;20056;-67
2023/06/26 11:09:04;;;;;;;12.55;6.82;;;31.50;64.50;;;;;;5047836;28;20039;-67
2023/06/26 11:11:48;;;;;;;;;;;32.00;66.00;;;;;;5063390;28;20028;-67
2023/06/26 11:14:16;;;;;;;27.30;9.77;;;31.90;66.20;;;;;;5058729;28;19923;-68
2023/06/26 11:16:42;;;;;;;15.88;7.38;;;32.10;64.80;;;;;;5062432;28;20771;-67
2023/06/26 11:19:13;;;;;;;16.38;7.43;;;31.80;64.00;;;;;;5056658;28;20035;-69
2023/06/26 11:21:38;;;;;;;13.45;6.63;;;32.10;63.20;;;;;;5065995;28;20029;-68
2023/06/26 11:24:07;;;;;;;;;;;32.00;64.00;;;;;;5066204;28;20028;-67
2023/06/26 11:26:39;;;;;;;10.15;5.93;;;31.70;64.20;;;;;;5061063;28;19919;-67
2023/06/26 11:29:05;;;;;;;8.18;6.60;;;31.60;64.00;;;;;;5057347;28;20078;-67
2023/06/26 11:31:32;;;;;;;13.20;5.88;;;31.40;64.90;;;;;;5056785;28;20024;-68
2023/06/26 11:34:03;;;;;;;12.18;6.75;;;31.40;65.00;;;;;;5060044;28;20032;-69
2023/06/26 11:36:29;;;;;;;10.18;6.38;;;31.00;64.20;;;;;;5055335;28;20094;-68
2023/06/26 11:38:59;;;;;;;16.92;6.75;;;30.80;64.60;;;;;;5057894;28;20396;-69
2023/06/26 11:41:28;;;;;;;11.25;6.70;;;31.20;65.80;;;;;;5059726;28;20033;-68
2023/06/26 11:43:54;;;;;;;10.75;6.50;;;31.30;65.20;;;;;;5044615;28;20123;-67
2023/06/26 11:46:21;;;;;;;10.70;6.22;;;31.50;65.30;;;;;;5064146;28;20050;-69
2023/06/26 11:48:47;;;;;;;15.13;6.22;;;31.60;64.50;;;;;;5056807;28;20036;-67
2023/06/26 11:51:14;;;;;;;15.48;7.85;;;31.60;64.70;;;;;;5060268;28;20133;-70
2023/06/26 11:53:45;;;;;;;12.27;5.55;;;31.50;64.50;;;;;;5060044;28;20066;-66
2023/06/26 11:56:13;;;;;;;12.32;6.43;;;31.60;64.10;;;;;;5045693;28;20035;-67
2023/06/26 11:59:04;;;;;;;10.52;6.78;;;31.50;64.50;;;;;;5059522;28;20119;-68
2023/06/26 12:01:41;;;;;;;10.95;6.63;;;31.40;66.20;;;;;;5058947;28;20025;-67
2023/06/26 12:04:16;;;;;;;10.65;6.55;;;31.20;64.70;;;;;;5060238;28;20032;-66
2023/06/26 12:06:48;;;;;;;14.50;6.57;;;31.60;66.60;;;;;;5059864;28;20089;-65
2023/06/26 12:09:14;;;;;;;18.88;7.47;;;31.30;64.40;;;;;;5055474;28;20632;-66
2023/06/26 12:11:44;;;;;;;24.83;6.53;;;31.40;65.30;;;;;;5055364;28;20576;-66
2023/06/26 12:14:10;;;;;;;11.38;6.75;;;31.50;65.10;;;;;;5061989;28;20093;-67
2023/06/26 12:16:37;;;;;;;13.02;6.38;;;31.40;63.90;;;;;;5058732;28;20140;-72
2023/06/26 12:19:04;;;;;;;13.68;6.40;;;31.30;64.90;;;;;;5057441;28;20032;-66
2023/06/26 12:21:41;;;;;;;11.52;6.68;;;31.10;64.50;;;;;;5058900;28;20059;-65
2023/06/26 12:24:14;;;;;;;8.63;6.07;;;31.50;66.40;;;;;;5056554;28;20036;-67
2023/06/26 12:26:45;;;;;;;10.73;6.32;;;31.40;67.00;;;;;;5058661;28;20884;-66
2023/06/26 12:29:14;;;;;;;14.77;6.93;;;31.40;66.10;;;;;;5056589;28;20487;-68
2023/06/26 12:31:45;;;;;;;10.77;6.38;;;31.30;65.80;;;;;;5053918;28;20024;-65
2023/06/26 12:34:18;;;;;;;11.20;6.55;;;31.10;68.70;;;;;;5060212;28;20036;-64
2023/06/26 12:36:48;;;;;;;13.80;6.13;;;31.30;67.40;;;;;;5057658;28;20041;-72
2023/06/26 12:39:17;;;;;;;9.70;6.60;;;31.40;65.40;;;;;;5057547;28;20566;-69
2023/06/26 12:41:46;;;;;;;14.23;6.18;;;31.50;65.90;;;;;;5056778;28;20042;-67
2023/06/26 12:44:27;;;;;;;10.00;6.20;;;31.40;66.40;;;;;;5057667;28;20039;-67